createdAt,value
2019-02-06T00:02:17.854Z,95244.98
2019-02-06T00:04:44.342Z,95247.73
2019-02-06T00:07:10.725Z,95252.87
2019-02-06T00:09:37.072Z,95253.37
2019-02-06T00:12:03.418Z,95253.00
2019-02-06T00:14:29.799Z,95250.89
2019-02-06T00:16:56.185Z,95250.64
2019-02-06T00:19:22.545Z,95248.55
2019-02-06T00:21:48.887Z,95249.81
2019-02-06T00:24:15.249Z,95248.62
2019-02-06T00:26:41.577Z,95250.27
2019-02-06T00:29:07.962Z,95254.34
2019-02-06T00:31:34.263Z,95253.98
2019-02-06T00:34:00.592Z,95251.53
2019-02-06T00:36:26.914Z,95250.48
2019-02-06T00:38:53.284Z,95255.17
2019-02-06T00:41:19.615Z,95252.36
2019-02-06T00:43:45.954Z,95259.55
2019-02-06T00:46:12.324Z,95242.73
2019-02-06T00:48:38.645Z,95240.72
2019-02-06T00:51:05.011Z,95245.28
2019-02-06T00:53:31.326Z,95246.59
2019-02-06T00:55:57.666Z,95243.78
2019-02-06T00:58:24.022Z,95247.27
2019-02-06T01:00:50.399Z,95250.30
2019-02-06T01:03:16.730Z,95256.27
2019-02-06T01:05:43.123Z,95258.05
2019-02-06T01:08:09.475Z,95255.39
2019-02-06T01:10:35.861Z,95257.09
2019-02-06T01:13:02.319Z,95247.36
2019-02-06T01:15:28.690Z,95243.50
2019-02-06T01:17:55.022Z,95241.94
2019-02-06T01:20:21.393Z,95236.09
2019-02-06T01:22:47.745Z,95240.17
2019-02-06T01:25:14.073Z,95235.58
2019-02-06T01:27:42.902Z,95232.67
2019-02-06T01:30:09.237Z,95238.91
2019-02-06T01:32:35.568Z,95233.31
2019-02-06T01:35:01.960Z,95234.59
2019-02-06T01:37:28.246Z,95226.77
2019-02-06T01:39:56.805Z,95223.64
2019-02-06T01:42:23.116Z,95220.48
2019-02-06T01:44:49.454Z,95221.92
2019-02-06T01:47:15.812Z,95221.89
2019-02-06T01:49:44.715Z,95216.02
2019-02-06T01:52:08.503Z,95218.16
2019-02-06T01:54:34.850Z,95212.23
2019-02-06T01:57:01.184Z,95204.83
2019-02-06T01:59:27.546Z,95200.42
2019-02-06T02:01:53.882Z,95190.20
2019-02-06T02:04:20.213Z,95185.09
2019-02-06T02:06:46.579Z,95186.06
2019-02-06T02:09:12.911Z,95181.38
2019-02-06T02:11:39.281Z,95187.28
2019-02-06T02:14:05.613Z,95184.94
2019-02-06T02:16:31.954Z,95173.80
2019-02-06T02:18:58.423Z,95182.70
2019-02-06T02:21:24.754Z,95184.28
2019-02-06T02:23:51.147Z,95175.88
2019-02-06T02:26:17.529Z,95171.44
2019-02-06T02:28:43.856Z,95174.25
2019-02-06T02:31:10.188Z,95170.75
2019-02-06T02:33:36.570Z,95162.81
2019-02-06T02:36:14.348Z,95148.09
2019-02-06T02:38:29.245Z,95156.28
2019-02-06T02:40:55.620Z,95149.95
2019-02-06T02:43:21.984Z,95147.98
2019-02-06T02:45:48.327Z,95147.38
2019-02-06T02:48:14.665Z,95148.71
2019-02-06T02:50:40.992Z,95149.88
2019-02-06T02:53:07.362Z,95143.70
2019-02-06T02:55:33.683Z,95147.89
2019-02-06T02:58:00.014Z,95153.05
2019-02-06T03:00:26.332Z,95139.84
2019-02-06T03:02:52.665Z,95126.25
2019-02-06T03:05:18.984Z,95127.54
2019-02-06T03:07:45.319Z,95121.59
2019-02-06T03:10:11.650Z,95121.40
2019-02-06T03:12:37.970Z,95130.51
2019-02-06T03:15:04.299Z,95138.59
2019-02-06T03:17:30.690Z,95142.69
2019-02-06T03:19:57.021Z,95142.69
2019-02-06T03:22:23.337Z,95140.48
2019-02-06T03:24:49.785Z,95136.25
2019-02-06T03:27:16.170Z,95142.00
2019-02-06T03:29:42.505Z,95144.21
2019-02-06T03:32:08.820Z,95140.72
2019-02-06T03:34:35.193Z,95129.59
2019-02-06T03:37:01.575Z,95126.66
2019-02-06T03:39:27.908Z,95136.72
2019-02-06T03:41:54.236Z,95133.13
2019-02-06T03:44:20.770Z,95126.69
2019-02-06T03:46:46.950Z,95121.64
2019-02-06T03:49:13.302Z,95113.81
2019-02-06T03:51:39.639Z,95114.51
2019-02-06T03:54:06.177Z,95119.20
2019-02-06T03:56:32.567Z,95126.09
2019-02-06T03:58:58.897Z,95131.61
2019-02-06T04:01:25.231Z,95126.10
2019-02-06T04:03:51.565Z,95127.29
2019-02-06T04:06:17.942Z,95134.42
2019-02-06T04:08:44.282Z,95146.27
2019-02-06T04:11:10.617Z,95151.30
2019-02-06T04:13:36.999Z,95154.83
2019-02-06T04:16:03.473Z,95154.47
2019-02-06T04:18:29.740Z,95151.33
2019-02-06T04:20:56.078Z,95150.41
2019-02-06T04:23:22.416Z,95145.48
2019-02-06T04:25:48.835Z,95130.36
2019-02-06T04:28:15.166Z,95130.26
2019-02-06T04:30:41.495Z,95132.01
2019-02-06T04:33:07.835Z,95137.52
2019-02-06T04:35:34.215Z,95128.73
2019-02-06T04:38:00.537Z,95128.50
2019-02-06T04:40:26.885Z,95142.66
2019-02-06T04:42:53.250Z,95145.37
2019-02-06T04:45:19.644Z,95148.17
2019-02-06T04:47:45.979Z,95154.16
2019-02-06T04:50:12.308Z,95160.16
2019-02-06T04:52:38.706Z,95156.86
2019-02-06T04:55:04.996Z,95160.98
2019-02-06T04:57:31.328Z,95165.29
2019-02-06T04:59:57.657Z,95160.98
2019-02-06T05:02:23.982Z,95163.64
2019-02-06T05:04:50.326Z,95170.13
2019-02-06T05:07:19.362Z,95163.58
2019-02-06T05:09:43.116Z,95168.27
2019-02-06T05:12:09.711Z,95169.78
2019-02-06T05:14:37.842Z,95164.39
2019-02-06T05:17:02.208Z,95167.89
2019-02-06T05:19:28.608Z,95167.56
2019-02-06T05:21:54.971Z,95174.84
2019-02-06T05:24:21.359Z,95179.39
2019-02-06T05:26:47.694Z,95177.17
2019-02-06T05:29:14.045Z,95182.33
2019-02-06T05:31:40.394Z,95183.13
2019-02-06T05:34:06.795Z,95186.89
2019-02-06T05:36:33.140Z,95191.22
2019-02-06T05:39:00.728Z,95196.86
2019-02-06T05:41:25.817Z,95189.47
2019-02-06T05:43:52.186Z,95197.43
2019-02-06T05:46:18.683Z,95198.02
2019-02-06T05:48:45.014Z,95205.98
2019-02-06T05:51:11.345Z,95209.39
2019-02-06T05:53:37.712Z,95211.05
2019-02-06T05:56:04.033Z,95214.07
2019-02-06T05:58:30.363Z,95212.31
2019-02-06T06:00:56.897Z,95207.27
2019-02-06T06:03:23.306Z,95212.21
2019-02-06T06:05:49.686Z,95213.85
2019-02-06T06:08:16.104Z,95217.13
2019-02-06T06:10:42.448Z,95220.98
2019-02-06T06:13:08.799Z,95229.44
2019-02-06T06:15:35.197Z,95229.67
2019-02-06T06:18:01.531Z,95229.55
2019-02-06T06:20:27.906Z,95238.36
2019-02-06T06:22:54.305Z,95242.33
2019-02-06T06:25:20.670Z,95238.23
2019-02-06T06:27:46.999Z,95220.41
2019-02-06T06:30:13.376Z,95228.15
2019-02-06T06:32:39.922Z,95227.89
2019-02-06T06:35:06.253Z,95223.92
2019-02-06T06:37:32.592Z,95217.45
2019-02-06T06:39:58.944Z,95215.97
2019-02-06T06:42:25.373Z,95215.14
2019-02-06T06:44:51.711Z,95210.91
2019-02-06T06:47:18.059Z,95213.13
2019-02-06T06:49:44.442Z,95216.42
2019-02-06T06:52:10.760Z,95214.64
2019-02-06T06:54:37.143Z,95224.04
2019-02-06T06:57:03.482Z,95218.05
2019-02-06T06:59:29.931Z,95212.96
2019-02-06T07:01:56.234Z,95217.56
2019-02-06T07:04:22.572Z,95223.23
2019-02-06T07:06:48.906Z,95215.66
2019-02-06T07:09:17.605Z,95219.99
2019-02-06T07:11:43.934Z,95222.25
2019-02-06T07:14:10.470Z,95217.78
2019-02-06T07:16:36.802Z,95212.61
2019-02-06T07:19:03.162Z,95209.05
2019-02-06T07:21:29.543Z,95206.82
2019-02-06T07:23:55.950Z,95217.83
2019-02-06T07:26:22.308Z,95215.68
2019-02-06T07:28:48.668Z,95222.31
2019-02-06T07:31:15.076Z,95223.58
2019-02-06T07:33:41.351Z,95225.91
2019-02-06T07:36:07.871Z,95228.98
2019-02-06T07:38:34.262Z,95228.44
2019-02-06T07:41:00.598Z,95227.52
2019-02-06T07:43:27.179Z,95223.97
2019-02-06T07:45:53.497Z,95222.86
2019-02-06T07:48:19.839Z,95226.52
2019-02-06T07:50:46.253Z,95229.59
2019-02-06T07:53:12.636Z,95227.31
2019-02-06T07:55:39.116Z,95233.03
2019-02-06T07:58:05.479Z,95237.97
2019-02-06T08:00:31.883Z,95233.66
2019-02-06T08:02:58.265Z,95236.08
2019-02-06T08:05:24.616Z,95233.71
2019-02-06T08:07:51.005Z,95230.58
2019-02-06T08:10:17.401Z,95232.20
2019-02-06T08:12:43.777Z,95234.32
2019-02-06T08:15:10.092Z,95234.39
2019-02-06T08:17:36.446Z,95242.61
2019-02-06T08:20:02.820Z,95244.44
2019-02-06T08:22:29.159Z,95242.75
2019-02-06T08:24:55.592Z,95245.55
2019-02-06T08:27:21.957Z,95244.34
2019-02-06T08:29:48.363Z,95248.21
2019-02-06T08:32:14.845Z,95251.19
2019-02-06T08:34:41.083Z,95254.09
2019-02-06T08:37:07.434Z,95254.67
2019-02-06T08:39:33.904Z,95252.98
2019-02-06T08:42:00.318Z,95250.00
2019-02-06T08:44:26.721Z,95252.73
2019-02-06T08:46:53.080Z,95256.92
2019-02-06T08:49:19.510Z,95260.95
2019-02-06T08:51:45.862Z,95258.94
2019-02-06T08:54:12.759Z,95262.49
2019-02-06T08:56:39.133Z,95269.95
2019-02-06T08:59:05.544Z,95272.18
2019-02-06T09:01:31.965Z,95271.31
2019-02-06T09:03:58.300Z,95278.46
2019-02-06T09:06:24.822Z,95273.94
2019-02-06T09:08:59.192Z,95274.52
2019-02-06T09:11:17.542Z,95275.23
2019-02-06T09:13:43.876Z,95273.11
2019-02-06T09:16:10.238Z,95281.15
2019-02-06T09:18:36.613Z,95274.30
2019-02-06T09:21:03.042Z,95273.73
2019-02-06T09:23:29.579Z,95285.11
2019-02-06T09:25:57.501Z,95291.21
2019-02-06T09:28:22.606Z,95292.97
2019-02-06T09:30:49.094Z,95287.37
2019-02-06T09:33:15.649Z,95289.09
2019-02-06T09:35:41.969Z,95284.50
2019-02-06T09:38:08.333Z,95291.97
2019-02-06T09:40:34.725Z,95295.38
2019-02-06T09:43:01.059Z,95296.56
2019-02-06T09:45:27.403Z,95294.09
2019-02-06T09:47:53.742Z,95291.78
2019-02-06T09:50:20.129Z,95291.89
2019-02-06T09:52:46.459Z,95293.08
2019-02-06T09:55:12.867Z,95289.67
2019-02-06T09:57:39.282Z,95290.05
2019-02-06T10:00:05.660Z,95294.40
2019-02-06T10:02:31.985Z,95291.17
2019-02-06T10:04:58.405Z,95290.31
2019-02-06T10:07:24.740Z,95292.22
2019-02-06T10:09:51.160Z,95294.26
2019-02-06T10:12:17.498Z,95294.23
2019-02-06T10:14:43.829Z,95293.69
2019-02-06T10:17:10.156Z,95291.20
2019-02-06T10:19:36.486Z,95293.08
2019-02-06T10:22:02.955Z,95294.48
2019-02-06T10:24:29.294Z,95293.44
2019-02-06T10:26:55.659Z,95284.86
2019-02-06T10:29:22.062Z,95285.65
2019-02-06T10:31:48.462Z,95287.66
2019-02-06T10:34:14.797Z,95289.63
2019-02-06T10:36:41.153Z,95291.28
2019-02-06T10:39:07.495Z,95286.94
2019-02-06T10:41:33.898Z,95281.88
2019-02-06T10:44:00.377Z,95283.09
2019-02-06T10:46:26.862Z,95286.91
2019-02-06T10:48:53.254Z,95288.45
2019-02-06T10:51:19.595Z,95279.37
2019-02-06T10:53:45.946Z,95280.80
2019-02-06T10:56:12.265Z,95283.17
2019-02-06T10:58:38.652Z,95288.41
2019-02-06T11:01:05.008Z,95283.17
2019-02-06T11:03:31.398Z,95279.19
2019-02-06T11:05:57.733Z,95284.39
2019-02-06T11:08:24.079Z,95280.48
2019-02-06T11:10:50.579Z,95285.36
2019-02-06T11:13:16.980Z,95293.84
2019-02-06T11:15:43.321Z,95293.47
2019-02-06T11:18:09.689Z,95288.34
2019-02-06T11:20:36.115Z,95285.29
2019-02-06T11:23:02.650Z,95285.36
2019-02-06T11:25:29.049Z,95274.45
2019-02-06T11:27:55.419Z,95277.11
2019-02-06T11:30:21.870Z,95284.89
2019-02-06T11:32:48.187Z,95275.41
2019-02-06T11:35:14.600Z,95275.55
2019-02-06T11:37:40.966Z,95270.53
2019-02-06T11:40:07.382Z,95275.05
2019-02-06T11:42:33.744Z,95268.12
2019-02-06T11:45:00.134Z,95265.98
2019-02-06T11:47:26.571Z,95269.41
2019-02-06T11:49:52.996Z,95278.25
2019-02-06T11:52:19.402Z,95278.31
2019-02-06T11:54:45.765Z,95280.89
2019-02-06T11:57:14.244Z,95271.16
2019-02-06T11:59:40.614Z,95270.27
2019-02-06T12:02:06.949Z,95272.50
2019-02-06T12:04:35.523Z,95275.50
2019-02-06T12:07:01.933Z,95272.14
2019-02-06T12:09:28.358Z,95279.50
2019-02-06T12:11:54.721Z,95268.73
2019-02-06T12:14:21.124Z,95280.78
2019-02-06T12:16:47.666Z,95281.30
2019-02-06T12:19:14.020Z,95278.56
2019-02-06T12:21:40.362Z,95274.80
2019-02-06T12:24:06.775Z,95272.64
2019-02-06T12:26:33.114Z,95269.20
2019-02-06T12:28:59.610Z,95273.11
2019-02-06T12:31:25.854Z,95268.30
2019-02-06T12:33:52.265Z,95270.74
2019-02-06T12:36:18.645Z,95270.02
2019-02-06T12:38:53.079Z,95247.45
2019-02-06T12:41:11.395Z,95268.31
2019-02-06T12:43:37.757Z,95275.55
2019-02-06T12:46:04.137Z,95269.23
2019-02-06T12:48:30.523Z,95272.61
2019-02-06T12:50:56.934Z,95277.21
2019-02-06T12:53:23.324Z,95277.03
2019-02-06T12:55:49.755Z,95277.92
2019-02-06T12:58:16.125Z,95281.95
2019-02-06T13:00:42.734Z,95280.41
2019-02-06T13:03:09.266Z,95280.05
2019-02-06T13:05:35.671Z,95268.31
2019-02-06T13:08:02.012Z,95286.36
2019-02-06T13:10:33.815Z,95285.32
2019-02-06T13:12:54.821Z,95285.79
2019-02-06T13:15:21.241Z,95284.28
2019-02-06T13:17:47.687Z,95290.91
2019-02-06T13:20:14.038Z,95289.23
2019-02-06T13:22:40.414Z,95292.72
2019-02-06T13:25:06.784Z,95296.23
2019-02-06T13:27:33.128Z,95296.31
2019-02-06T13:29:59.485Z,95298.36
2019-02-06T13:32:25.935Z,95300.90
2019-02-06T13:35:00.327Z,95296.59
2019-02-06T13:37:27.644Z,95306.91
2019-02-06T13:39:54.157Z,95304.50
2019-02-06T13:42:20.697Z,95302.81
2019-02-06T13:44:47.120Z,95300.66
2019-02-06T13:47:13.509Z,95294.30
2019-02-06T13:49:39.826Z,95293.69
2019-02-06T13:52:06.239Z,95293.11
2019-02-06T13:54:32.606Z,95293.90
2019-02-06T13:56:58.940Z,95292.61
2019-02-06T13:59:25.292Z,95300.01
2019-02-06T14:01:51.709Z,95300.26
2019-02-06T14:04:18.172Z,95300.80
2019-02-06T14:06:44.610Z,95309.42
2019-02-06T14:09:21.649Z,95315.98
2019-02-06T14:11:37.466Z,95312.39
2019-02-06T14:14:04.028Z,95315.55
2019-02-06T14:16:30.375Z,95325.36
2019-02-06T14:18:56.868Z,95315.95
2019-02-06T14:21:23.292Z,95322.23
2019-02-06T14:23:49.701Z,95326.47
2019-02-06T14:26:16.072Z,95326.50
2019-02-06T14:28:44.929Z,95324.60
2019-02-06T14:31:08.922Z,95322.55
2019-02-06T14:33:35.473Z,95323.34
2019-02-06T14:36:02.367Z,95325.57
2019-02-06T14:38:28.739Z,95316.62
2019-02-06T14:40:55.051Z,95313.83
2019-02-06T14:43:21.461Z,95317.09
2019-02-06T14:45:47.845Z,95318.06
2019-02-06T14:48:14.195Z,95314.27
2019-02-06T14:50:40.618Z,95312.14
2019-02-06T14:53:07.001Z,95311.71
2019-02-06T14:55:33.403Z,95309.81
2019-02-06T14:57:59.729Z,95308.16
2019-02-06T15:00:26.191Z,95308.19
2019-02-06T15:02:52.506Z,95306.08
2019-02-06T15:05:18.991Z,95302.55
2019-02-06T15:07:45.285Z,95305.14
2019-02-06T15:10:11.664Z,95298.11
2019-02-06T15:12:37.994Z,95295.98
2019-02-06T15:15:04.349Z,95299.25
2019-02-06T15:17:30.861Z,95295.63
2019-02-06T15:19:57.184Z,95291.42
2019-02-06T15:22:23.551Z,95290.95
2019-02-06T15:24:49.886Z,95295.20
2019-02-06T15:27:16.240Z,95297.42
2019-02-06T15:29:42.575Z,95292.50
2019-02-06T15:32:08.947Z,95294.07
2019-02-06T15:34:35.282Z,95293.11
2019-02-06T15:37:01.634Z,95286.78
2019-02-06T15:39:27.993Z,95291.02
2019-02-06T15:41:54.378Z,95292.53
2019-02-06T15:44:21.360Z,95291.23
2019-02-06T15:46:49.645Z,95281.39
2019-02-06T15:49:14.057Z,95300.86
2019-02-06T15:51:40.388Z,95299.89
2019-02-06T15:54:07.450Z,95306.98
2019-02-06T15:56:33.823Z,95305.94
2019-02-06T15:59:00.297Z,95310.06
2019-02-06T16:01:26.643Z,95305.61
2019-02-06T16:03:52.988Z,95310.06
2019-02-06T16:06:19.339Z,95313.82
2019-02-06T16:08:45.680Z,95314.88
2019-02-06T16:11:12.026Z,95317.91
2019-02-06T16:13:38.359Z,95324.05
2019-02-06T16:16:04.687Z,95327.09
2019-02-06T16:18:31.041Z,95325.92
2019-02-06T16:20:57.473Z,95334.39
2019-02-06T16:23:23.815Z,95329.33
2019-02-06T16:25:50.162Z,95339.30
2019-02-06T16:28:16.517Z,95335.20
2019-02-06T16:30:42.856Z,95338.03
2019-02-06T16:33:09.232Z,95348.38
2019-02-06T16:35:35.592Z,95336.99
2019-02-06T16:38:01.890Z,95346.96
2019-02-06T16:40:28.220Z,95350.14
2019-02-06T16:42:54.543Z,95353.30
2019-02-06T16:45:20.950Z,95359.05
2019-02-06T16:47:47.255Z,95362.69
2019-02-06T16:50:13.716Z,95363.63
2019-02-06T16:52:40.061Z,95374.89
2019-02-06T16:55:06.448Z,95380.29
2019-02-06T16:57:32.802Z,95380.42
2019-02-06T16:59:59.159Z,95393.09
2019-02-06T17:02:25.607Z,95392.61
2019-02-06T17:04:51.936Z,95393.56
2019-02-06T17:07:18.525Z,95397.87
2019-02-06T17:09:44.712Z,95393.54
2019-02-06T17:12:11.043Z,95406.91
2019-02-06T17:14:37.435Z,95403.50
2019-02-06T17:17:03.766Z,95401.65
2019-02-06T17:19:30.097Z,95407.28
2019-02-06T17:21:56.435Z,95407.74
2019-02-06T17:24:22.768Z,95407.15
2019-02-06T17:26:49.794Z,95412.54
2019-02-06T17:29:16.151Z,95410.42
2019-02-06T17:31:42.465Z,95408.41
2019-02-06T17:34:08.806Z,95411.78
2019-02-06T17:36:35.183Z,95409.20
2019-02-06T17:39:01.541Z,95404.80
2019-02-06T17:41:27.862Z,95406.75
2019-02-06T17:43:54.198Z,95402.05
2019-02-06T17:46:20.551Z,95403.67
2019-02-06T17:48:46.903Z,95414.59
2019-02-06T17:51:13.314Z,95414.48
2019-02-06T17:53:39.611Z,95418.13
2019-02-06T17:56:05.950Z,95416.34
2019-02-06T17:58:32.311Z,95416.11
2019-02-06T18:00:58.663Z,95416.94
2019-02-06T18:03:24.993Z,95422.89
2019-02-06T18:05:51.398Z,95415.15
2019-02-06T18:08:17.771Z,95421.86
2019-02-06T18:10:44.153Z,95417.50
2019-02-06T18:13:10.533Z,95420.67
2019-02-06T18:15:36.868Z,95418.55
2019-02-06T18:18:03.235Z,95420.66
2019-02-06T18:20:29.564Z,95422.28
2019-02-06T18:22:56.048Z,95425.36
2019-02-06T18:25:22.377Z,95422.05
2019-02-06T18:27:48.760Z,95421.72
2019-02-06T18:30:15.113Z,95420.89
2019-02-06T18:32:41.572Z,95421.82
2019-02-06T18:35:07.938Z,95412.20
2019-02-06T18:37:34.340Z,95424.27
2019-02-06T18:40:00.681Z,95426.61
2019-02-06T18:42:36.676Z,95425.69
2019-02-06T18:44:53.471Z,95429.78
2019-02-06T18:47:19.838Z,95427.89
2019-02-06T18:49:46.172Z,95436.23
2019-02-06T18:52:20.161Z,95433.64
2019-02-06T18:54:38.907Z,95435.50
2019-02-06T18:57:05.234Z,95436.78
2019-02-06T18:59:31.575Z,95444.75
2019-02-06T19:01:57.961Z,95450.05
2019-02-06T19:04:24.290Z,95448.16
2019-02-06T19:06:50.700Z,95445.20
2019-02-06T19:09:16.986Z,95451.55
2019-02-06T19:11:43.389Z,95453.44
2019-02-06T19:14:09.723Z,95454.22
2019-02-06T19:16:36.049Z,95460.30
2019-02-06T19:19:02.380Z,95453.06
2019-02-06T19:21:28.721Z,95457.39
2019-02-06T19:23:55.043Z,95458.44
2019-02-06T19:26:21.433Z,95461.02
2019-02-06T19:28:47.767Z,95462.55
2019-02-06T19:31:14.234Z,95466.17
2019-02-06T19:33:40.576Z,95460.28
2019-02-06T19:36:06.960Z,95472.72
2019-02-06T19:38:33.314Z,95465.91
2019-02-06T19:40:59.645Z,95462.62
2019-02-06T19:43:26.004Z,95470.73
2019-02-06T19:45:52.329Z,95470.95
2019-02-06T19:48:20.245Z,95464.59
2019-02-06T19:50:45.073Z,95461.34
2019-02-06T19:53:11.405Z,95464.38
2019-02-06T19:55:37.758Z,95467.98
2019-02-06T19:58:04.143Z,95473.37
2019-02-06T20:00:30.476Z,95477.25
2019-02-06T20:02:56.855Z,95472.64
2019-02-06T20:05:23.188Z,95475.23
2019-02-06T20:07:49.570Z,95474.14
2019-02-06T20:10:15.902Z,95478.30
2019-02-06T20:12:42.276Z,95472.99
2019-02-06T20:15:08.594Z,95480.13
2019-02-06T20:17:34.924Z,95481.20
2019-02-06T20:20:01.311Z,95485.66
2019-02-06T20:22:27.656Z,95485.05
2019-02-06T20:24:54.120Z,95485.11
2019-02-06T20:27:20.474Z,95486.49
2019-02-06T20:29:46.805Z,95490.91
2019-02-06T20:32:13.186Z,95493.21
2019-02-06T20:34:39.517Z,95493.55
2019-02-06T20:37:05.893Z,95490.73
2019-02-06T20:39:32.217Z,95497.47
2019-02-06T20:41:58.548Z,95492.91
2019-02-06T20:44:24.935Z,95499.55
2019-02-06T20:46:51.317Z,95503.81
2019-02-06T20:49:17.653Z,95502.39
2019-02-06T20:51:43.973Z,95496.63
2019-02-06T20:54:10.350Z,95502.95
2019-02-06T20:56:36.698Z,95490.52
2019-02-06T20:59:03.012Z,95503.20
2019-02-06T21:01:29.349Z,95502.87
2019-02-06T21:03:55.679Z,95508.53
2019-02-06T21:06:22.060Z,95500.68
2019-02-06T21:08:48.391Z,95504.17
2019-02-06T21:11:14.841Z,95503.05
2019-02-06T21:13:41.175Z,95498.16
2019-02-06T21:16:07.554Z,95500.56
2019-02-06T21:18:33.883Z,95498.20
2019-02-06T21:21:00.222Z,95490.69
2019-02-06T21:23:26.596Z,95490.64
2019-02-06T21:25:52.934Z,95490.31
2019-02-06T21:28:19.294Z,95496.95
2019-02-06T21:30:46.966Z,95499.27
2019-02-06T21:33:12.049Z,95495.67
2019-02-06T21:35:38.346Z,95492.22
2019-02-06T21:38:04.661Z,95496.66
2019-02-06T21:40:31.022Z,95493.00
2019-02-06T21:42:57.412Z,95497.52
2019-02-06T21:45:23.816Z,95499.69
2019-02-06T21:47:50.148Z,95497.06
2019-02-06T21:50:16.567Z,95498.19
2019-02-06T21:52:42.877Z,95500.92
2019-02-06T21:55:09.168Z,95494.61
2019-02-06T21:57:35.490Z,95497.51
2019-02-06T22:00:01.891Z,95502.59
2019-02-06T22:02:28.230Z,95505.02
2019-02-06T22:04:54.564Z,95496.94
2019-02-06T22:07:20.902Z,95493.53
2019-02-06T22:09:47.236Z,95490.91
2019-02-06T22:12:13.618Z,95493.53
2019-02-06T22:14:39.965Z,95501.03
2019-02-06T22:17:06.298Z,95494.59
2019-02-06T22:19:32.648Z,95499.38
2019-02-06T22:22:01.807Z,95496.80
2019-02-06T22:24:28.194Z,95492.34
2019-02-06T22:26:54.516Z,95490.12
2019-02-06T22:29:20.855Z,95492.43
2019-02-06T22:31:47.260Z,95495.45
2019-02-06T22:34:13.606Z,95491.27
2019-02-06T22:36:39.939Z,95494.75
2019-02-06T22:39:06.289Z,95492.27
2019-02-06T22:41:32.622Z,95491.72
2019-02-06T22:44:06.311Z,95492.58
2019-02-06T22:46:25.374Z,95496.23
2019-02-06T22:48:51.745Z,95494.20
2019-02-06T22:51:18.082Z,95502.91
2019-02-06T22:53:44.456Z,95505.77
2019-02-06T22:56:10.806Z,95513.40
2019-02-06T22:58:37.136Z,95513.03
2019-02-06T23:01:03.477Z,95502.54
2019-02-06T23:03:29.862Z,95501.45
2019-02-06T23:05:56.195Z,95497.72
2019-02-06T23:08:22.536Z,95505.42
2019-02-06T23:10:48.997Z,95507.17
2019-02-06T23:13:15.290Z,95507.37
2019-02-06T23:15:41.636Z,95506.26
2019-02-06T23:18:07.979Z,95505.52
2019-02-06T23:20:34.307Z,95497.66
2019-02-06T23:23:00.688Z,95498.38
2019-02-06T23:25:27.020Z,95491.14
2019-02-06T23:27:53.397Z,95494.45
2019-02-06T23:30:19.730Z,95496.45
2019-02-06T23:32:46.057Z,95492.14
2019-02-06T23:35:12.425Z,95483.72
2019-02-06T23:37:38.788Z,95483.88
2019-02-06T23:40:05.085Z,95485.37
2019-02-06T23:42:31.416Z,95484.91
2019-02-06T23:44:57.785Z,95490.69
2019-02-06T23:47:24.121Z,95487.68
2019-02-06T23:49:50.502Z,95484.45
2019-02-06T23:52:16.829Z,95487.94
2019-02-06T23:54:43.180Z,95483.30
2019-02-06T23:57:09.557Z,95480.80
2019-02-06T23:59:35.836Z,95481.45
